Terminal Aerodrome Forecast
Issued by NWS

Home | Current Version | Previous Version | Text Only | Print | Product List | Glossary On
Versions: 1 2 3 4 5 6 7 8 9 10 11 12 13 14 15 16 17 18 19 20 21 22 23 24 25 26 27 28 29 30
000
FTUS42 KJAX 172325
TAFVQQ
TAF
KVQQ 172325Z 1800/1824 VRB03KT P6SM FEW040 BKN250
     FM180400 00000KT 5SM BR SCT004 BKN250
      TEMPO 1805/1807 2SM BR BKN004
     FM180700 00000KT 2SM BR SCT003 BKN250
      TEMPO 1808/1812 1/2SM FG OVC003
     FM181400 23004KT P6SM BKN250
     FM181600 25007KT P6SM SCT040 BKN250=

USA.gov is the U.S. government's official web portal to all federal, state and local government web resources and services.